sensor_id;sensor_type;location;lat;lon;timestamp;P1;durP1;ratioP1;P2;durP2;ratioP2
4563;SDS011;2294;51.818;8.484;2023-04-25T00:02:03;14.50;;;4.77;;
4563;SDS011;2294;51.818;8.484;2023-04-25T00:04:31;9.70;;;5.43;;
4563;SDS011;2294;51.818;8.484;2023-04-25T00:06:59;19.33;;;4.60;;
4563;SDS011;2294;51.818;8.484;2023-04-25T00:09:27;6.70;;;3.73;;
4563;SDS011;2294;51.818;8.484;2023-04-25T00:11:54;11.30;;;4.70;;
4563;SDS011;2294;51.818;8.484;2023-04-25T00:14:21;11.53;;;4.10;;
4563;SDS011;2294;51.818;8.484;2023-04-25T00:16:48;6.40;;;4.07;;
4563;SDS011;2294;51.818;8.484;2023-04-25T00:19:16;12.37;;;4.50;;
4563;SDS011;2294;51.818;8.484;2023-04-25T00:21:44;9.10;;;5.03;;
4563;SDS011;2294;51.818;8.484;2023-04-25T00:24:12;8.60;;;5.13;;
4563;SDS011;2294;51.818;8.484;2023-04-25T00:26:39;17.73;;;5.73;;
4563;SDS011;2294;51.818;8.484;2023-04-25T00:29:06;13.63;;;4.30;;
4563;SDS011;2294;51.818;8.484;2023-04-25T00:31:32;8.00;;;3.93;;
4563;SDS011;2294;51.818;8.484;2023-04-25T00:33:59;7.57;;;4.03;;
4563;SDS011;2294;51.818;8.484;2023-04-25T00:36:26;8.00;;;3.80;;
4563;SDS011;2294;51.818;8.484;2023-04-25T00:38:55;17.27;;;4.67;;
4563;SDS011;2294;51.818;8.484;2023-04-25T00:41:21;13.23;;;4.90;;
4563;SDS011;2294;51.818;8.484;2023-04-25T00:43:50;18.13;;;4.83;;
4563;SDS011;2294;51.818;8.484;2023-04-25T00:46:18;8.90;;;4.67;;
4563;SDS011;2294;51.818;8.484;2023-04-25T00:48:44;20.53;;;5.50;;
4563;SDS011;2294;51.818;8.484;2023-04-25T00:51:13;9.77;;;4.70;;
4563;SDS011;2294;51.818;8.484;2023-04-25T00:53:42;10.13;;;4.87;;
4563;SDS011;2294;51.818;8.484;2023-04-25T00:56:11;13.97;;;5.40;;
4563;SDS011;2294;51.818;8.484;2023-04-25T00:58:39;22.27;;;5.67;;
4563;SDS011;2294;51.818;8.484;2023-04-25T01:01:07;14.00;;;5.70;;
4563;SDS011;2294;51.818;8.484;2023-04-25T01:03:34;15.90;;;5.77;;
4563;SDS011;2294;51.818;8.484;2023-04-25T01:06:05;11.57;;;5.23;;
4563;SDS011;2294;51.818;8.484;2023-04-25T01:08:33;11.17;;;4.57;;
4563;SDS011;2294;51.818;8.484;2023-04-25T01:11:00;13.77;;;6.23;;
4563;SDS011;2294;51.818;8.484;2023-04-25T01:13:28;13.83;;;6.00;;
4563;SDS011;2294;51.818;8.484;2023-04-25T01:15:57;12.10;;;6.67;;
4563;SDS011;2294;51.818;8.484;2023-04-25T01:18:23;14.43;;;6.30;;
4563;SDS011;2294;51.818;8.484;2023-04-25T01:20:51;10.83;;;5.23;;
4563;SDS011;2294;51.818;8.484;2023-04-25T01:23:20;18.50;;;7.03;;
4563;SDS011;2294;51.818;8.484;2023-04-25T01:25:48;12.87;;;6.27;;
4563;SDS011;2294;51.818;8.484;2023-04-25T01:28:15;14.27;;;6.30;;
4563;SDS011;2294;51.818;8.484;2023-04-25T01:30:42;8.00;;;5.90;;
4563;SDS011;2294;51.818;8.484;2023-04-25T01:33:10;15.33;;;6.40;;
4563;SDS011;2294;51.818;8.484;2023-04-25T01:35:39;12.87;;;6.60;;
4563;SDS011;2294;51.818;8.484;2023-04-25T01:38:06;29.60;;;6.93;;
4563;SDS011;2294;51.818;8.484;2023-04-25T01:40:35;16.10;;;5.80;;
4563;SDS011;2294;51.818;8.484;2023-04-25T01:43:06;8.90;;;5.37;;
4563;SDS011;2294;51.818;8.484;2023-04-25T01:45:36;17.70;;;6.53;;
4563;SDS011;2294;51.818;8.484;2023-04-25T01:48:05;13.20;;;6.10;;
4563;SDS011;2294;51.818;8.484;2023-04-25T01:50:32;21.73;;;6.23;;
4563;SDS011;2294;51.818;8.484;2023-04-25T01:52:59;8.00;;;4.87;;
4563;SDS011;2294;51.818;8.484;2023-04-25T01:55:27;14.50;;;5.83;;
4563;SDS011;2294;51.818;8.484;2023-04-25T01:57:55;13.67;;;6.13;;
4563;SDS011;2294;51.818;8.484;2023-04-25T02:00:23;11.73;;;6.23;;
4563;SDS011;2294;51.818;8.484;2023-04-25T02:02:50;15.43;;;5.13;;
4563;SDS011;2294;51.818;8.484;2023-04-25T02:05:18;12.20;;;5.60;;
4563;SDS011;2294;51.818;8.484;2023-04-25T02:07:47;11.20;;;5.40;;
4563;SDS011;2294;51.818;8.484;2023-04-25T02:10:14;12.50;;;5.97;;
4563;SDS011;2294;51.818;8.484;2023-04-25T02:12:41;10.50;;;5.90;;
4563;SDS011;2294;51.818;8.484;2023-04-25T02:15:10;17.30;;;6.67;;
4563;SDS011;2294;51.818;8.484;2023-04-25T02:17:36;16.40;;;5.47;;
4563;SDS011;2294;51.818;8.484;2023-04-25T02:20:04;22.83;;;7.23;;
4563;SDS011;2294;51.818;8.484;2023-04-25T02:22:32;11.13;;;5.93;;
4563;SDS011;2294;51.818;8.484;2023-04-25T02:25:00;13.20;;;8.17;;
4563;SDS011;2294;51.818;8.484;2023-04-25T02:27:29;14.57;;;6.50;;
4563;SDS011;2294;51.818;8.484;2023-04-25T02:29:56;13.40;;;6.37;;
4563;SDS011;2294;51.818;8.484;2023-04-25T02:32:24;14.93;;;6.20;;
4563;SDS011;2294;51.818;8.484;2023-04-25T02:34:51;11.57;;;6.57;;
4563;SDS011;2294;51.818;8.484;2023-04-25T02:37:18;24.57;;;7.07;;
4563;SDS011;2294;51.818;8.484;2023-04-25T02:39:45;10.87;;;6.13;;
4563;SDS011;2294;51.818;8.484;2023-04-25T02:42:12;14.73;;;7.40;;
4563;SDS011;2294;51.818;8.484;2023-04-25T02:44:39;10.77;;;6.80;;
4563;SDS011;2294;51.818;8.484;2023-04-25T02:47:06;16.20;;;6.00;;
4563;SDS011;2294;51.818;8.484;2023-04-25T02:49:34;13.40;;;7.10;;
4563;SDS011;2294;51.818;8.484;2023-04-25T02:52:01;10.60;;;5.63;;
4563;SDS011;2294;51.818;8.484;2023-04-25T02:54:28;7.37;;;4.57;;
4563;SDS011;2294;51.818;8.484;2023-04-25T02:56:55;8.83;;;5.03;;
4563;SDS011;2294;51.818;8.484;2023-04-25T02:59:22;9.87;;;5.13;;
4563;SDS011;2294;51.818;8.484;2023-04-25T03:01:49;14.80;;;5.77;;
4563;SDS011;2294;51.818;8.484;2023-04-25T03:04:15;18.03;;;5.70;;
4563;SDS011;2294;51.818;8.484;2023-04-25T03:06:45;11.47;;;5.40;;
4563;SDS011;2294;51.818;8.484;2023-04-25T03:09:12;11.97;;;6.00;;
4563;SDS011;2294;51.818;8.484;2023-04-25T03:11:39;8.83;;;6.13;;
4563;SDS011;2294;51.818;8.484;2023-04-25T03:14:06;10.27;;;5.80;;
4563;SDS011;2294;51.818;8.484;2023-04-25T03:16:33;13.30;;;6.23;;
4563;SDS011;2294;51.818;8.484;2023-04-25T03:19:00;16.00;;;5.93;;
4563;SDS011;2294;51.818;8.484;2023-04-25T03:21:27;13.20;;;6.60;;
4563;SDS011;2294;51.818;8.484;2023-04-25T03:23:55;19.93;;;7.60;;
4563;SDS011;2294;51.818;8.484;2023-04-25T03:26:22;22.10;;;6.17;;
4563;SDS011;2294;51.818;8.484;2023-04-25T03:28:49;13.20;;;5.47;;
4563;SDS011;2294;51.818;8.484;2023-04-25T03:31:16;22.30;;;5.30;;
4563;SDS011;2294;51.818;8.484;2023-04-25T03:33:43;10.20;;;4.57;;
4563;SDS011;2294;51.818;8.484;2023-04-25T03:36:10;12.33;;;5.40;;
4563;SDS011;2294;51.818;8.484;2023-04-25T03:38:37;15.87;;;5.17;;
4563;SDS011;2294;51.818;8.484;2023-04-25T03:41:05;22.77;;;6.53;;
4563;SDS011;2294;51.818;8.484;2023-04-25T03:43:32;22.03;;;5.23;;
4563;SDS011;2294;51.818;8.484;2023-04-25T03:45:58;6.83;;;4.13;;
4563;SDS011;2294;51.818;8.484;2023-04-25T03:48:27;19.20;;;5.60;;
4563;SDS011;2294;51.818;8.484;2023-04-25T03:50:54;11.30;;;4.67;;
4563;SDS011;2294;51.818;8.484;2023-04-25T03:53:21;11.07;;;3.90;;
4563;SDS011;2294;51.818;8.484;2023-04-25T03:55:48;11.50;;;4.33;;
4563;SDS011;2294;51.818;8.484;2023-04-25T03:58:16;12.03;;;4.23;;
4563;SDS011;2294;51.818;8.484;2023-04-25T04:00:43;14.73;;;4.50;;
4563;SDS011;2294;51.818;8.484;2023-04-25T04:03:10;13.67;;;4.33;;
4563;SDS011;2294;51.818;8.484;2023-04-25T04:05:37;10.03;;;4.77;;
4563;SDS011;2294;51.818;8.484;2023-04-25T04:08:05;14.50;;;4.93;;
4563;SDS011;2294;51.818;8.484;2023-04-25T04:10:32;10.53;;;4.00;;
4563;SDS011;2294;51.818;8.484;2023-04-25T04:12:59;8.57;;;4.33;;
4563;SDS011;2294;51.818;8.484;2023-04-25T04:15:29;17.97;;;5.50;;
4563;SDS011;2294;51.818;8.484;2023-04-25T04:17:58;11.83;;;4.67;;
4563;SDS011;2294;51.818;8.484;2023-04-25T04:20:27;8.40;;;3.80;;
4563;SDS011;2294;51.818;8.484;2023-04-25T04:22:55;15.00;;;4.17;;
4563;SDS011;2294;51.818;8.484;2023-04-25T04:25:22;22.50;;;5.30;;
4563;SDS011;2294;51.818;8.484;2023-04-25T04:27:49;18.70;;;4.77;;
4563;SDS011;2294;51.818;8.484;2023-04-25T04:30:19;21.20;;;4.30;;
4563;SDS011;2294;51.818;8.484;2023-04-25T04:32:50;10.27;;;3.70;;
4563;SDS011;2294;51.818;8.484;2023-04-25T04:35:17;8.80;;;4.77;;
4563;SDS011;2294;51.818;8.484;2023-04-25T04:37:44;13.50;;;3.87;;
4563;SDS011;2294;51.818;8.484;2023-04-25T04:40:11;9.30;;;3.00;;
4563;SDS011;2294;51.818;8.484;2023-04-25T04:42:40;14.30;;;4.80;;
4563;SDS011;2294;51.818;8.484;2023-04-25T04:45:07;18.90;;;3.57;;
4563;SDS011;2294;51.818;8.484;2023-04-25T04:47:35;14.33;;;3.30;;
4563;SDS011;2294;51.818;8.484;2023-04-25T04:50:07;11.50;;;4.13;;
4563;SDS011;2294;51.818;8.484;2023-04-25T04:52:35;21.57;;;3.73;;
4563;SDS011;2294;51.818;8.484;2023-04-25T04:55:02;9.60;;;3.80;;
4563;SDS011;2294;51.818;8.484;2023-04-25T04:57:30;11.97;;;3.40;;
4563;SDS011;2294;51.818;8.484;2023-04-25T04:59:57;28.53;;;5.10;;
4563;SDS011;2294;51.818;8.484;2023-04-25T05:02:24;10.93;;;3.90;;
4563;SDS011;2294;51.818;8.484;2023-04-25T05:04:52;13.87;;;4.30;;
4563;SDS011;2294;51.818;8.484;2023-04-25T05:07:20;14.07;;;3.27;;
4563;SDS011;2294;51.818;8.484;2023-04-25T05:09:47;22.33;;;4.80;;
4563;SDS011;2294;51.818;8.484;2023-04-25T05:12:14;22.23;;;4.63;;
4563;SDS011;2294;51.818;8.484;2023-04-25T05:14:41;16.90;;;3.90;;
4563;SDS011;2294;51.818;8.484;2023-04-25T05:17:08;11.43;;;3.70;;
4563;SDS011;2294;51.818;8.484;2023-04-25T05:19:35;21.37;;;5.60;;
4563;SDS011;2294;51.818;8.484;2023-04-25T05:22:02;9.40;;;4.33;;
4563;SDS011;2294;51.818;8.484;2023-04-25T05:24:30;6.23;;;2.80;;
4563;SDS011;2294;51.818;8.484;2023-04-25T05:26:57;19.23;;;4.50;;
4563;SDS011;2294;51.818;8.484;2023-04-25T05:29:24;14.30;;;3.67;;
4563;SDS011;2294;51.818;8.484;2023-04-25T05:31:51;23.70;;;4.63;;
4563;SDS011;2294;51.818;8.484;2023-04-25T05:34:18;13.17;;;3.80;;
4563;SDS011;2294;51.818;8.484;2023-04-25T05:36:45;14.03;;;4.70;;
4563;SDS011;2294;51.818;8.484;2023-04-25T05:39:13;8.77;;;3.63;;
4563;SDS011;2294;51.818;8.484;2023-04-25T05:41:41;18.03;;;3.33;;
4563;SDS011;2294;51.818;8.484;2023-04-25T05:44:08;14.30;;;3.13;;
4563;SDS011;2294;51.818;8.484;2023-04-25T05:46:35;16.47;;;4.30;;
4563;SDS011;2294;51.818;8.484;2023-04-25T05:49:02;13.13;;;3.37;;
4563;SDS011;2294;51.818;8.484;2023-04-25T05:51:29;12.93;;;3.40;;
4563;SDS011;2294;51.818;8.484;2023-04-25T05:53:56;21.20;;;3.53;;
4563;SDS011;2294;51.818;8.484;2023-04-25T05:56:23;16.20;;;4.80;;
4563;SDS011;2294;51.818;8.484;2023-04-25T05:58:52;13.40;;;3.57;;
4563;SDS011;2294;51.818;8.484;2023-04-25T06:01:20;6.43;;;1.80;;
4563;SDS011;2294;51.818;8.484;2023-04-25T06:03:47;19.87;;;4.80;;
4563;SDS011;2294;51.818;8.484;2023-04-25T06:06:14;13.93;;;4.10;;
4563;SDS011;2294;51.818;8.484;2023-04-25T06:08:41;11.37;;;3.83;;
4563;SDS011;2294;51.818;8.484;2023-04-25T06:11:08;13.30;;;4.47;;
4563;SDS011;2294;51.818;8.484;2023-04-25T06:13:35;13.87;;;4.00;;
4563;SDS011;2294;51.818;8.484;2023-04-25T06:16:03;13.43;;;3.63;;
4563;SDS011;2294;51.818;8.484;2023-04-25T06:18:30;11.80;;;3.07;;
4563;SDS011;2294;51.818;8.484;2023-04-25T06:20:57;21.77;;;3.80;;
4563;SDS011;2294;51.818;8.484;2023-04-25T06:23:24;13.77;;;3.60;;
4563;SDS011;2294;51.818;8.484;2023-04-25T06:25:51;24.40;;;4.17;;
4563;SDS011;2294;51.818;8.484;2023-04-25T06:28:18;16.13;;;4.07;;
4563;SDS011;2294;51.818;8.484;2023-04-25T06:30:47;9.83;;;2.90;;
4563;SDS011;2294;51.818;8.484;2023-04-25T06:33:15;14.50;;;3.77;;
4563;SDS011;2294;51.818;8.484;2023-04-25T06:35:42;13.67;;;3.63;;
4563;SDS011;2294;51.818;8.484;2023-04-25T06:38:09;17.03;;;3.20;;
4563;SDS011;2294;51.818;8.484;2023-04-25T06:40:36;17.70;;;3.50;;
4563;SDS011;2294;51.818;8.484;2023-04-25T06:43:03;10.93;;;3.40;;
4563;SDS011;2294;51.818;8.484;2023-04-25T06:45:30;16.53;;;4.13;;
4563;SDS011;2294;51.818;8.484;2023-04-25T06:47:57;25.47;;;4.33;;
4563;SDS011;2294;51.818;8.484;2023-04-25T06:50:25;12.83;;;3.30;;
4563;SDS011;2294;51.818;8.484;2023-04-25T06:52:52;16.17;;;2.87;;
4563;SDS011;2294;51.818;8.484;2023-04-25T06:55:19;14.13;;;3.90;;
4563;SDS011;2294;51.818;8.484;2023-04-25T06:57:46;13.30;;;3.00;;
4563;SDS011;2294;51.818;8.484;2023-04-25T07:00:13;6.17;;;2.83;;
4563;SDS011;2294;51.818;8.484;2023-04-25T07:02:41;9.90;;;2.60;;
4563;SDS011;2294;51.818;8.484;2023-04-25T07:05:08;10.60;;;3.10;;
4563;SDS011;2294;51.818;8.484;2023-04-25T07:07:36;9.33;;;2.40;;
4563;SDS011;2294;51.818;8.484;2023-04-25T07:10:04;16.83;;;3.80;;
4563;SDS011;2294;51.818;8.484;2023-04-25T07:12:31;18.83;;;4.70;;
4563;SDS011;2294;51.818;8.484;2023-04-25T07:14:58;4.90;;;1.30;;
4563;SDS011;2294;51.818;8.484;2023-04-25T07:17:30;18.40;;;3.53;;
4563;SDS011;2294;51.818;8.484;2023-04-25T07:19:58;21.47;;;3.73;;
4563;SDS011;2294;51.818;8.484;2023-04-25T07:22:24;17.40;;;4.13;;
4563;SDS011;2294;51.818;8.484;2023-04-25T07:24:53;13.20;;;3.20;;
4563;SDS011;2294;51.818;8.484;2023-04-25T07:27:20;25.37;;;3.50;;
4563;SDS011;2294;51.818;8.484;2023-04-25T07:29:47;14.60;;;3.53;;
4563;SDS011;2294;51.818;8.484;2023-04-25T07:32:14;8.53;;;2.80;;
4563;SDS011;2294;51.818;8.484;2023-04-25T07:34:41;24.10;;;3.50;;
4563;SDS011;2294;51.818;8.484;2023-04-25T07:37:08;8.30;;;2.33;;
4563;SDS011;2294;51.818;8.484;2023-04-25T07:39:35;7.67;;;4.07;;
4563;SDS011;2294;51.818;8.484;2023-04-25T07:42:04;7.67;;;2.70;;
4563;SDS011;2294;51.818;8.484;2023-04-25T07:44:33;12.73;;;3.00;;
4563;SDS011;2294;51.818;8.484;2023-04-25T07:47:03;11.10;;;2.80;;
4563;SDS011;2294;51.818;8.484;2023-04-25T07:49:32;13.00;;;2.53;;
4563;SDS011;2294;51.818;8.484;2023-04-25T07:51:59;5.97;;;2.27;;
4563;SDS011;2294;51.818;8.484;2023-04-25T07:54:26;14.63;;;5.10;;
4563;SDS011;2294;51.818;8.484;2023-04-25T07:56:53;9.30;;;3.30;;
4563;SDS011;2294;51.818;8.484;2023-04-25T07:59:22;4.93;;;2.10;;
4563;SDS011;2294;51.818;8.484;2023-04-25T08:01:49;11.13;;;2.33;;
4563;SDS011;2294;51.818;8.484;2023-04-25T08:04:15;8.53;;;1.83;;
4563;SDS011;2294;51.818;8.484;2023-04-25T08:06:42;15.10;;;2.27;;
4563;SDS011;2294;51.818;8.484;2023-04-25T08:09:10;8.40;;;2.37;;
4563;SDS011;2294;51.818;8.484;2023-04-25T08:11:37;8.57;;;2.87;;
4563;SDS011;2294;51.818;8.484;2023-04-25T08:14:04;7.40;;;2.47;;
4563;SDS011;2294;51.818;8.484;2023-04-25T08:16:33;5.60;;;2.20;;
4563;SDS011;2294;51.818;8.484;2023-04-25T08:19:00;8.83;;;2.43;;
4563;SDS011;2294;51.818;8.484;2023-04-25T08:21:27;7.33;;;1.80;;
4563;SDS011;2294;51.818;8.484;2023-04-25T08:23:54;6.67;;;2.20;;
4563;SDS011;2294;51.818;8.484;2023-04-25T08:26:21;13.70;;;3.73;;
4563;SDS011;2294;51.818;8.484;2023-04-25T08:28:48;7.73;;;2.17;;
4563;SDS011;2294;51.818;8.484;2023-04-25T08:31:15;17.53;;;2.43;;
4563;SDS011;2294;51.818;8.484;2023-04-25T08:33:44;3.30;;;1.70;;
4563;SDS011;2294;51.818;8.484;2023-04-25T08:36:11;7.60;;;1.90;;
4563;SDS011;2294;51.818;8.484;2023-04-25T08:38:38;8.17;;;2.10;;
4563;SDS011;2294;51.818;8.484;2023-04-25T08:41:05;8.90;;;2.67;;
4563;SDS011;2294;51.818;8.484;2023-04-25T08:43:33;14.37;;;2.60;;
4563;SDS011;2294;51.818;8.484;2023-04-25T08:46:01;9.40;;;2.47;;
4563;SDS011;2294;51.818;8.484;2023-04-25T08:48:28;9.93;;;1.90;;
4563;SDS011;2294;51.818;8.484;2023-04-25T08:50:59;8.67;;;2.37;;
4563;SDS011;2294;51.818;8.484;2023-04-25T08:53:30;7.90;;;2.23;;
4563;SDS011;2294;51.818;8.484;2023-04-25T08:55:59;8.60;;;2.27;;
4563;SDS011;2294;51.818;8.484;2023-04-25T08:58:27;9.37;;;2.73;;
4563;SDS011;2294;51.818;8.484;2023-04-25T09:00:54;12.57;;;2.70;;
4563;SDS011;2294;51.818;8.484;2023-04-25T09:03:21;9.20;;;2.60;;
4563;SDS011;2294;51.818;8.484;2023-04-25T09:05:48;9.47;;;1.50;;
4563;SDS011;2294;51.818;8.484;2023-04-25T09:08:17;11.87;;;2.00;;
4563;SDS011;2294;51.818;8.484;2023-04-25T09:10:44;15.60;;;1.97;;
4563;SDS011;2294;51.818;8.484;2023-04-25T09:13:12;11.80;;;2.30;;
4563;SDS011;2294;51.818;8.484;2023-04-25T09:15:47;8.40;;;1.83;;
4563;SDS011;2294;51.818;8.484;2023-04-25T09:18:22;6.60;;;1.77;;
4563;SDS011;2294;51.818;8.484;2023-04-25T09:20:51;9.63;;;2.13;;
4563;SDS011;2294;51.818;8.484;2023-04-25T09:23:20;10.83;;;1.83;;
4563;SDS011;2294;51.818;8.484;2023-04-25T09:25:48;3.17;;;1.50;;
4563;SDS011;2294;51.818;8.484;2023-04-25T09:28:17;14.27;;;2.50;;
4563;SDS011;2294;51.818;8.484;2023-04-25T09:30:52;6.80;;;1.20;;
4563;SDS011;2294;51.818;8.484;2023-04-25T09:33:21;7.30;;;1.57;;
4563;SDS011;2294;51.818;8.484;2023-04-25T09:35:56;16.23;;;2.37;;
4563;SDS011;2294;51.818;8.484;2023-04-25T09:38:30;10.13;;;2.23;;
4563;SDS011;2294;51.818;8.484;2023-04-25T09:40:57;6.93;;;1.33;;
4563;SDS011;2294;51.818;8.484;2023-04-25T09:43:25;4.07;;;1.30;;
4563;SDS011;2294;51.818;8.484;2023-04-25T09:45:53;4.40;;;1.37;;
4563;SDS011;2294;51.818;8.484;2023-04-25T09:48:24;8.97;;;2.17;;
4563;SDS011;2294;51.818;8.484;2023-04-25T09:51:05;7.63;;;1.73;;
4563;SDS011;2294;51.818;8.484;2023-04-25T09:53:35;3.80;;;1.40;;
4563;SDS011;2294;51.818;8.484;2023-04-25T09:56:03;4.50;;;1.30;;
4563;SDS011;2294;51.818;8.484;2023-04-25T09:58:34;11.43;;;1.40;;
4563;SDS011;2294;51.818;8.484;2023-04-25T10:01:02;6.13;;;2.10;;
4563;SDS011;2294;51.818;8.484;2023-04-25T10:03:31;8.53;;;1.50;;
4563;SDS011;2294;51.818;8.484;2023-04-25T10:05:59;9.47;;;1.90;;
4563;SDS011;2294;51.818;8.484;2023-04-25T10:08:29;3.20;;;1.60;;
4563;SDS011;2294;51.818;8.484;2023-04-25T10:11:00;8.40;;;1.53;;
4563;SDS011;2294;51.818;8.484;2023-04-25T10:13:29;7.57;;;1.60;;
4563;SDS011;2294;51.818;8.484;2023-04-25T10:15:56;7.03;;;1.50;;
4563;SDS011;2294;51.818;8.484;2023-04-25T10:18:24;3.53;;;1.73;;
4563;SDS011;2294;51.818;8.484;2023-04-25T10:20:52;5.30;;;1.53;;
4563;SDS011;2294;51.818;8.484;2023-04-25T10:23:20;7.00;;;2.10;;
4563;SDS011;2294;51.818;8.484;2023-04-25T10:25:47;4.60;;;1.60;;
4563;SDS011;2294;51.818;8.484;2023-04-25T10:28:16;7.63;;;2.27;;
4563;SDS011;2294;51.818;8.484;2023-04-25T10:30:56;6.20;;;1.70;;
4563;SDS011;2294;51.818;8.484;2023-04-25T10:33:29;4.43;;;1.90;;
4563;SDS011;2294;51.818;8.484;2023-04-25T10:35:59;7.93;;;1.67;;
4563;SDS011;2294;51.818;8.484;2023-04-25T10:38:35;2.50;;;1.50;;
4563;SDS011;2294;51.818;8.484;2023-04-25T10:41:03;6.53;;;1.87;;
4563;SDS011;2294;51.818;8.484;2023-04-25T10:43:34;6.93;;;2.20;;
4563;SDS011;2294;51.818;8.484;2023-04-25T10:46:03;9.93;;;1.70;;
4563;SDS011;2294;51.818;8.484;2023-04-25T10:48:43;4.70;;;1.67;;
4563;SDS011;2294;51.818;8.484;2023-04-25T10:51:15;7.73;;;1.77;;
4563;SDS011;2294;51.818;8.484;2023-04-25T10:53:44;3.47;;;1.40;;
4563;SDS011;2294;51.818;8.484;2023-04-25T10:56:11;5.00;;;1.47;;
4563;SDS011;2294;51.818;8.484;2023-04-25T10:58:45;3.03;;;1.67;;
4563;SDS011;2294;51.818;8.484;2023-04-25T11:01:12;4.90;;;1.60;;
4563;SDS011;2294;51.818;8.484;2023-04-25T11:03:40;10.73;;;1.87;;
4563;SDS011;2294;51.818;8.484;2023-04-25T11:06:12;23.17;;;9.30;;
4563;SDS011;2294;51.818;8.484;2023-04-25T11:08:47;14.83;;;3.70;;
4563;SDS011;2294;51.818;8.484;2023-04-25T11:11:16;10.83;;;6.40;;
4563;SDS011;2294;51.818;8.484;2023-04-25T11:13:46;8.73;;;1.77;;
4563;SDS011;2294;51.818;8.484;2023-04-25T11:16:14;4.83;;;2.10;;
4563;SDS011;2294;51.818;8.484;2023-04-25T11:18:41;5.47;;;2.47;;
4563;SDS011;2294;51.818;8.484;2023-04-25T11:21:08;5.40;;;1.60;;
4563;SDS011;2294;51.818;8.484;2023-04-25T11:23:35;2.30;;;1.30;;
4563;SDS011;2294;51.818;8.484;2023-04-25T11:26:03;4.67;;;2.37;;
4563;SDS011;2294;51.818;8.484;2023-04-25T11:28:30;1.83;;;1.40;;
4563;SDS011;2294;51.818;8.484;2023-04-25T11:30:58;3.00;;;1.60;;
4563;SDS011;2294;51.818;8.484;2023-04-25T11:33:25;5.33;;;2.50;;
4563;SDS011;2294;51.818;8.484;2023-04-25T11:35:53;7.93;;;1.83;;
4563;SDS011;2294;51.818;8.484;2023-04-25T11:38:21;6.33;;;2.90;;
4563;SDS011;2294;51.818;8.484;2023-04-25T11:40:49;5.93;;;2.73;;
4563;SDS011;2294;51.818;8.484;2023-04-25T11:43:17;5.60;;;1.70;;
4563;SDS011;2294;51.818;8.484;2023-04-25T11:45:46;7.00;;;1.90;;
4563;SDS011;2294;51.818;8.484;2023-04-25T11:48:15;7.50;;;2.30;;
4563;SDS011;2294;51.818;8.484;2023-04-25T11:50:42;2.80;;;1.90;;
4563;SDS011;2294;51.818;8.484;2023-04-25T11:53:09;3.50;;;1.13;;
4563;SDS011;2294;51.818;8.484;2023-04-25T11:55:36;3.40;;;1.50;;
4563;SDS011;2294;51.818;8.484;2023-04-25T11:58:05;3.00;;;1.40;;
4563;SDS011;2294;51.818;8.484;2023-04-25T12:00:33;4.73;;;1.70;;
4563;SDS011;2294;51.818;8.484;2023-04-25T12:03:00;4.50;;;1.97;;
4563;SDS011;2294;51.818;8.484;2023-04-25T12:05:29;12.90;;;1.70;;
4563;SDS011;2294;51.818;8.484;2023-04-25T12:07:58;4.83;;;1.70;;
4563;SDS011;2294;51.818;8.484;2023-04-25T12:10:36;18.97;;;6.57;;
4563;SDS011;2294;51.818;8.484;2023-04-25T12:13:17;14.70;;;4.13;;
4563;SDS011;2294;51.818;8.484;2023-04-25T12:15:45;8.10;;;3.87;;
4563;SDS011;2294;51.818;8.484;2023-04-25T12:18:12;5.50;;;1.70;;
4563;SDS011;2294;51.818;8.484;2023-04-25T12:20:41;7.97;;;3.80;;
4563;SDS011;2294;51.818;8.484;2023-04-25T12:23:07;3.03;;;1.80;;
4563;SDS011;2294;51.818;8.484;2023-04-25T12:25:36;17.63;;;1.93;;
4563;SDS011;2294;51.818;8.484;2023-04-25T12:28:10;2.83;;;1.60;;
4563;SDS011;2294;51.818;8.484;2023-04-25T12:33:21;17.23;;;2.67;;
4563;SDS011;2294;51.818;8.484;2023-04-25T12:35:49;5.03;;;2.33;;
4563;SDS011;2294;51.818;8.484;2023-04-25T12:38:23;8.87;;;2.37;;
4563;SDS011;2294;51.818;8.484;2023-04-25T12:40:51;5.83;;;2.37;;
4563;SDS011;2294;51.818;8.484;2023-04-25T12:43:18;6.10;;;1.50;;
4563;SDS011;2294;51.818;8.484;2023-04-25T12:45:47;10.70;;;2.30;;
4563;SDS011;2294;51.818;8.484;2023-04-25T12:48:14;2.40;;;1.50;;
4563;SDS011;2294;51.818;8.484;2023-04-25T12:50:41;10.03;;;1.50;;
4563;SDS011;2294;51.818;8.484;2023-04-25T12:53:10;1.67;;;1.10;;
4563;SDS011;2294;51.818;8.484;2023-04-25T12:55:37;2.63;;;1.60;;
4563;SDS011;2294;51.818;8.484;2023-04-25T12:58:04;4.50;;;1.20;;
4563;SDS011;2294;51.818;8.484;2023-04-25T13:00:31;3.70;;;1.43;;
4563;SDS011;2294;51.818;8.484;2023-04-25T13:02:58;6.50;;;1.60;;
4563;SDS011;2294;51.818;8.484;2023-04-25T13:05:25;3.73;;;1.50;;
4563;SDS011;2294;51.818;8.484;2023-04-25T13:07:53;8.87;;;2.20;;
4563;SDS011;2294;51.818;8.484;2023-04-25T13:10:21;6.93;;;2.00;;
4563;SDS011;2294;51.818;8.484;2023-04-25T13:12:48;4.93;;;1.13;;
4563;SDS011;2294;51.818;8.484;2023-04-25T13:15:15;2.40;;;1.30;;
4563;SDS011;2294;51.818;8.484;2023-04-25T13:17:42;4.60;;;1.00;;
4563;SDS011;2294;51.818;8.484;2023-04-25T13:20:09;2.50;;;1.33;;
4563;SDS011;2294;51.818;8.484;2023-04-25T13:22:37;5.37;;;1.30;;
4563;SDS011;2294;51.818;8.484;2023-04-25T13:25:04;2.70;;;1.13;;
4563;SDS011;2294;51.818;8.484;2023-04-25T13:27:34;3.27;;;1.43;;
4563;SDS011;2294;51.818;8.484;2023-04-25T13:30:02;1.97;;;1.10;;
4563;SDS011;2294;51.818;8.484;2023-04-25T13:32:32;3.53;;;1.30;;
4563;SDS011;2294;51.818;8.484;2023-04-25T13:35:00;5.90;;;1.17;;
4563;SDS011;2294;51.818;8.484;2023-04-25T13:37:28;5.10;;;1.20;;
4563;SDS011;2294;51.818;8.484;2023-04-25T13:39:57;1.53;;;1.00;;
4563;SDS011;2294;51.818;8.484;2023-04-25T13:42:25;2.53;;;1.17;;
4563;SDS011;2294;51.818;8.484;2023-04-25T13:44:53;6.23;;;1.10;;
4563;SDS011;2294;51.818;8.484;2023-04-25T13:47:20;1.73;;;1.07;;
4563;SDS011;2294;51.818;8.484;2023-04-25T13:49:47;2.37;;;1.40;;
4563;SDS011;2294;51.818;8.484;2023-04-25T13:52:13;6.00;;;1.77;;
4563;SDS011;2294;51.818;8.484;2023-04-25T13:54:40;3.33;;;1.43;;
4563;SDS011;2294;51.818;8.484;2023-04-25T13:57:07;9.33;;;1.43;;
4563;SDS011;2294;51.818;8.484;2023-04-25T13:59:36;5.07;;;1.33;;
4563;SDS011;2294;51.818;8.484;2023-04-25T14:02:04;3.97;;;1.20;;
4563;SDS011;2294;51.818;8.484;2023-04-25T14:04:31;1.60;;;1.17;;
4563;SDS011;2294;51.818;8.484;2023-04-25T14:06:58;1.77;;;1.20;;
4563;SDS011;2294;51.818;8.484;2023-04-25T14:09:25;3.93;;;1.00;;
4563;SDS011;2294;51.818;8.484;2023-04-25T14:11:52;1.70;;;1.10;;
4563;SDS011;2294;51.818;8.484;2023-04-25T14:14:19;2.90;;;1.20;;
4563;SDS011;2294;51.818;8.484;2023-04-25T14:16:46;3.70;;;1.60;;
4563;SDS011;2294;51.818;8.484;2023-04-25T14:19:15;5.90;;;1.33;;
4563;SDS011;2294;51.818;8.484;2023-04-25T14:21:42;9.40;;;1.83;;
4563;SDS011;2294;51.818;8.484;2023-04-25T14:24:09;1.30;;;1.03;;
4563;SDS011;2294;51.818;8.484;2023-04-25T14:26:36;4.83;;;1.33;;
4563;SDS011;2294;51.818;8.484;2023-04-25T14:29:04;3.50;;;1.00;;
4563;SDS011;2294;51.818;8.484;2023-04-25T14:31:34;5.50;;;1.43;;
4563;SDS011;2294;51.818;8.484;2023-04-25T14:34:01;4.23;;;1.93;;
4563;SDS011;2294;51.818;8.484;2023-04-25T14:36:30;2.73;;;1.00;;
4563;SDS011;2294;51.818;8.484;2023-04-25T14:38:57;2.77;;;1.37;;
4563;SDS011;2294;51.818;8.484;2023-04-25T14:41:24;3.10;;;1.20;;
4563;SDS011;2294;51.818;8.484;2023-04-25T14:43:52;6.30;;;1.40;;
4563;SDS011;2294;51.818;8.484;2023-04-25T14:46:19;4.90;;;1.30;;
4563;SDS011;2294;51.818;8.484;2023-04-25T14:48:47;3.63;;;1.33;;
4563;SDS011;2294;51.818;8.484;2023-04-25T14:51:14;3.80;;;1.40;;
4563;SDS011;2294;51.818;8.484;2023-04-25T14:53:42;2.80;;;1.40;;
4563;SDS011;2294;51.818;8.484;2023-04-25T14:56:09;7.67;;;1.43;;
4563;SDS011;2294;51.818;8.484;2023-04-25T14:58:36;12.03;;;1.73;;
4563;SDS011;2294;51.818;8.484;2023-04-25T15:01:03;3.50;;;1.80;;
4563;SDS011;2294;51.818;8.484;2023-04-25T15:03:31;2.33;;;1.40;;
4563;SDS011;2294;51.818;8.484;2023-04-25T15:05:58;5.87;;;1.50;;
4563;SDS011;2294;51.818;8.484;2023-04-25T15:08:25;6.77;;;1.60;;
4563;SDS011;2294;51.818;8.484;2023-04-25T15:10:53;1.87;;;1.40;;
4563;SDS011;2294;51.818;8.484;2023-04-25T15:13:20;1.40;;;1.10;;
4563;SDS011;2294;51.818;8.484;2023-04-25T15:15:47;3.67;;;1.30;;